Latest Weather Observations for Port Augusta

IDS60801

Issued at 8:31 am CDT Saturday 6 February 2016 (issued every 30 minutes, with the page automatically refreshed every 10 minutes)

About weather observations | Map of weather stations | Latest weather observations for SA | Other Formats
Station Details ID: 018201 Name: PORT AUGUSTA AERO Lat: -32.51 Lon: 137.72 Height: 13.97 m
Data from the previous 72 hours. | See also: Recent months at Port Augusta
Date/Time
CDT
Temp
°C
App
Temp
°C
Dew
Point
Rel
Hum
%
Delta-T
°C
Wind Press
QNH
hPa
Press
MSL
hPa
Rain
since 9 am
mm
Dir
 
Spd
km/h
Gust
km/h
Spd
kts
Gust
kts
06/08:30am 22.4 20.6 15.5 65 4.1 SE 19 24 10 13 1014.2 1014.1 0.0
06/08:00am 21.3 19.7 16.0 72 3.2 SE 19 22 10 12 1013.9 1013.8 0.0
06/07:30am 20.0 19.0 16.6 81 2.1 SE 17 22 9 12 1013.7 1013.6 0.0
06/07:00am 19.2 18.3 16.8 86 1.4 SSE 17 22 9 12 1013.4 1013.3 0.0
06/06:30am 19.1 17.6 16.7 86 1.4 SSE 20 28 11 15 1013.1 1013.0 0.0
06/06:00am 19.1 17.6 16.3 84 1.7 SSE 19 28 10 15 1013.0 1012.9 0.0
06/05:30am 19.3 16.8 16.2 82 1.9 SSE 24 32 13 17 1012.9 1012.8 0.0
06/05:00am 19.7 18.0 16.2 80 2.1 SSE 20 26 11 14 1012.9 1012.8 0.0
06/04:30am 19.6 17.0 15.9 79 2.2 SSE 24 32 13 17 1012.8 1012.7 0.0
06/04:00am 19.9 17.7 16.0 78 2.3 SE 22 32 12 17 1012.7 1012.6 0.0
06/03:30am 19.9 18.0 15.7 77 2.5 SSE 20 28 11 15 1013.0 1012.9 0.0
06/03:00am 20.1 17.4 15.7 76 2.6 SSE 24 32 13 17 1013.4 1013.3 0.0
06/02:30am 20.5 17.4 15.7 74 2.9 SE 26 33 14 18 1013.7 1013.6 0.0
06/02:00am 21.1 19.1 15.0 68 3.6 SSE 19 28 10 15 1013.8 1013.7 0.0
06/01:30am 20.9 18.7 14.5 67 3.7 SSE 19 22 10 12 1013.8 1013.7 0.0
06/01:00am 21.2 19.9 14.8 67 3.8 SSE 15 24 8 13 1014.1 1014.0 0.0
06/12:30am 21.9 19.5 14.5 63 4.3 S 20 28 11 15 1014.1 1014.0 0.0
06/12:00am 22.1 21.3 15.0 64 4.2 S 13 24 7 13 1014.3 1014.2 0.0
 
Date/Time
CDT
Temp
°C
App
Temp
°C
Dew
Point
Rel
Hum
%
Delta-T
°C
Wind Press
QNH
hPa
Press
MSL
hPa
Rain
since 9 am
mm
Dir
 
Spd
km/h
Gust
km/h
Spd
kts
Gust
kts
05/11:30pm 22.5 20.0 15.1 63 4.4 S 22 30 12 16 1014.4 1014.3 0.0
05/11:00pm 22.7 18.4 15.3 63 4.4 SSE 32 41 17 22 1014.2 1014.1 0.0
05/10:30pm 22.9 18.3 15.2 62 4.6 SSE 33 44 18 24 1014.1 1014.0 0.0
05/10:00pm 23.7 18.9 14.1 55 5.6 SSE 32 44 17 24 1014.0 1013.9 0.0
05/09:49pm 24.1 19.9 13.6 52 6.1 SSE 28 41 15 22 1014.0 1013.9 0.0
05/09:30pm 23.2 22.9 12.8 52 6.0 NW 6 9 3 5 1014.0 1013.9 0.0
05/09:00pm 23.4 20.6 14.4 57 5.3 SE 22 30 12 16 1013.6 1013.5 0.0
05/08:30pm 24.1 21.8 14.2 54 5.8 SE 19 30 10 16 1013.2 1013.1 0.0
05/08:00pm 25.4 22.4 13.6 48 6.9 SE 22 32 12 17 1012.6 1012.5 0.0
05/07:30pm 28.3 22.3 8.6 29 10.8 SSE 30 41 16 22 1012.1 1012.0 0.0
05/07:00pm 29.5 23.3 8.0 26 11.7 SSE 30 39 16 21 1011.8 1011.7 0.0
05/06:30pm 29.5 22.5 8.5 27 11.6 SSE 35 48 19 26 1011.6 1011.5 0.0
05/06:00pm 29.7 22.4 8.7 27 11.6 SSE 37 50 20 27 1011.6 1011.5 0.0
05/05:30pm 29.5 21.7 9.6 29 11.2 SSE 41 52 22 28 1011.6 1011.5 0.0
05/05:00pm 29.9 22.5 9.9 29 11.3 SSE 39 52 21 28 1011.8 1011.7 0.0
05/04:30pm 29.9 22.1 9.9 29 11.3 SSE 41 52 22 28 1011.9 1011.8 0.0
05/04:00pm 30.4 23.2 10.4 29 11.4 SSE 39 50 21 27 1012.3 1012.2 0.0
05/03:30pm 30.9 23.6 10.3 28 11.8 SSE 39 48 21 26 1012.6 1012.5 0.0
05/03:00pm 29.6 22.8 10.7 31 10.8 SSE 37 48 20 26 1013.2 1013.1 0.0
05/02:30pm 29.1 22.7 10.7 32 10.5 SSE 35 46 19 25 1013.7 1013.6 0.0
05/02:00pm 28.3 22.2 10.5 33 10.1 SSE 33 43 18 23 1014.1 1014.0 0.0
05/01:30pm 27.7 21.7 10.9 35 9.5 SSE 33 41 18 22 1014.5 1014.4 0.0
05/01:00pm 27.3 21.6 11.3 37 9.1 SSE 32 41 17 22 1014.9 1014.8 0.0
05/12:30pm 26.3 20.5 10.9 38 8.7 SSE 32 39 17 21 1015.5 1015.4 0.0
05/12:00pm 24.8 18.9 11.0 42 7.7 SSE 33 43 18 23 1015.9 1015.8 0.0
05/11:30am 24.7 19.0 11.3 43 7.5 SSE 32 41 17 22 1016.0 1015.9 0.0
05/11:00am 24.0 18.3 11.0 44 7.3 SSE 32 43 17 23 1016.3 1016.2 0.0
05/10:30am 22.9 17.0 11.3 48 6.5 SSE 33 39 18 21 1016.5 1016.4 0.0
05/10:00am 22.2 16.7 10.7 48 6.3 SSE 30 39 16 21 1016.7 1016.6 0.0
05/09:30am 21.3 15.6 11.1 52 5.6 SSE 32 37 17 20 1016.8 1016.7 0.0
05/09:00am 20.3 15.2 11.8 58 4.7 SSE 30 35 16 19 1016.7 1016.6 0.0
05/08:30am 19.1 14.1 12.1 64 3.9 SSE 30 35 16 19 1016.8 1016.7 0.0
05/08:00am 18.2 13.2 12.2 68 3.3 SSE 30 41 16 22 1016.5 1016.4 0.0
05/07:30am 17.6 13.4 12.3 71 2.9 SSE 26 39 14 21 1016.4 1016.3 0.0
05/07:00am 17.0 14.0 12.1 73 2.7 S 19 32 10 17 1016.1 1016.0 0.0
05/06:30am 17.0 13.2 12.3 74 2.6 S 24 35 13 19 1015.9 1015.8 0.0
05/06:00am 16.9 13.0 12.2 74 2.6 SSE 24 32 13 17 1015.6 1015.5 0.0
05/05:30am 17.1 12.9 12.4 74 2.6 SSE 26 33 14 18 1015.3 1015.2 0.0
05/05:00am 17.2 11.8 12.3 73 2.7 SSE 32 44 17 24 1015.0 1014.9 0.0
05/04:48am 17.4 12.7 12.1 71 2.9 SSE 28 35 15 19 1015.0 1014.9 0.0
05/04:30am 17.2 14.9 11.9 71 2.9 S 15 17 8 9 1015.2 1015.1 0.0
05/04:00am 17.5 16.1 12.2 71 2.9 S 11 17 6 9 1015.2 1015.1 0.0
05/03:30am 17.9 13.0 12.6 71 2.9 SSE 30 39 16 21 1014.8 1014.7 0.0
05/03:00am 18.2 12.8 12.9 71 3.0 SSE 33 44 18 24 1014.8 1014.7 0.0
05/02:30am 18.4 13.2 12.8 70 3.1 S 32 43 17 23 1015.2 1015.1 0.0
05/02:00am 18.6 13.5 13.2 71 3.1 S 32 43 17 23 1015.4 1015.3 0.0
05/01:30am 18.8 13.8 13.4 71 3.1 SSE 32 46 17 25 1015.6 1015.5 0.0
05/01:00am 19.1 14.2 13.7 71 3.1 SSE 32 43 17 23 1015.6 1015.5 0.0
05/12:30am 19.3 13.8 13.7 70 3.2 SSE 35 44 19 24 1015.8 1015.7 0.0
05/12:00am 19.7 14.1 13.4 67 3.6 SSE 35 50 19 27 1015.9 1015.8 0.0
 
Date/Time
CDT
Temp
°C
App
Temp
°C
Dew
Point
Rel
Hum
%
Delta-T
°C
Wind Press
QNH
hPa
Press
MSL
hPa
Rain
since 9 am
mm
Dir
 
Spd
km/h
Gust
km/h
Spd
kts
Gust
kts
04/11:30pm 19.8 14.1 13.0 65 3.8 S 35 46 19 25 1016.1 1016.0 0.0
04/11:00pm 20.1 13.9 12.8 63 4.1 S 37 52 20 28 1016.2 1016.1 0.0
04/10:30pm 20.6 14.8 12.8 61 4.4 S 35 46 19 25 1016.2 1016.1 0.0
04/10:00pm 21.1 13.3 13.0 60 4.6 S 46 59 25 32 1016.1 1016.0 0.0
04/09:30pm 21.7 14.2 12.8 57 5.1 S 44 59 24 32 1015.7 1015.6 0.0
04/09:00pm 22.1 13.5 12.9 56 5.3 S 50 63 27 34 1015.5 1015.4 0.0
04/08:30pm 22.6 15.2 12.3 52 5.8 S 43 56 23 30 1015.3 1015.2 0.0
04/08:00pm 23.4 15.0 11.1 46 6.9 S 46 61 25 33 1014.9 1014.8 0.0
04/07:46pm 23.8 15.3 10.8 44 7.2 S 46 65 25 35 1014.8 1014.7 0.0
04/07:30pm 24.4 16.2 11.7 45 7.2 S 46 61 25 33 1014.5 1014.4 0.0
04/07:02pm 25.0 16.8 11.6 43 7.6 S 46 65 25 35 1014.1 1014.0 0.0
04/07:00pm 25.2 16.6 11.7 43 7.7 S 48 65 26 35 1014.2 1014.1 0.0
04/06:34pm 25.8 17.4 11.2 40 8.3 S 46 65 25 35 1014.0 1013.9 0.0
04/06:30pm 25.8 17.2 11.6 41 8.1 S 48 65 26 35 1013.9 1013.8 0.0
04/06:01pm 25.8 18.0 11.9 42 8.0 S 44 63 24 34 1013.7 1013.6 0.0
04/06:00pm 26.2 18.6 11.9 41 8.2 S 43 57 23 31 1013.8 1013.7 0.0
04/05:30pm 26.9 19.1 11.0 37 9.0 S 43 61 23 33 1014.1 1014.0 0.0
04/05:22pm 26.9 18.8 10.2 35 9.3 S 43 61 23 33 1014.0 1013.9 0.0
04/05:00pm 27.5 18.8 7.9 29 10.6 S 43 57 23 31 1014.2 1014.1 0.0
04/04:30pm 27.3 19.0 7.7 29 10.5 S 41 56 22 30 1014.5 1014.4 0.0
04/04:00pm 27.1 18.9 8.0 30 10.3 S 41 56 22 30 1014.9 1014.8 0.0
04/03:38pm 27.3 18.6 7.7 29 10.5 S 43 61 23 33 1015.1 1015.0 0.0
04/03:30pm 26.6 17.7 7.6 30 10.1 SSE 44 59 24 32 1015.3 1015.2 0.0
04/03:00pm 26.6 18.3 7.6 30 10.1 SSE 41 52 22 28 1015.8 1015.7 0.0
04/02:30pm 26.0 18.0 7.6 31 9.8 S 39 48 21 26 1016.3 1016.2 0.0
04/02:00pm 25.4 17.9 8.0 33 9.3 SSE 37 50 20 27 1016.8 1016.7 0.0
04/01:30pm 24.8 17.7 7.9 34 9.0 SSE 35 46 19 25 1017.3 1017.2 0.0
04/01:00pm 23.5 16.5 8.4 38 8.0 S 35 50 19 27 1017.9 1017.8 0.0
04/12:30pm 22.7 15.1 9.1 42 7.3 S 39 52 21 28 1018.1 1018.0 0.0
04/12:00pm 22.2 15.3 9.0 43 7.0 SSE 35 46 19 25 1018.5 1018.4 0.0
04/11:30am 21.8 15.1 9.7 46 6.5 SSE 35 46 19 25 1018.7 1018.6 0.0
04/11:00am 20.5 14.1 9.4 49 5.9 SE 33 48 18 26 1019.1 1019.0 0.0
04/10:30am 20.0 14.5 10.4 54 5.2 SE 30 39 16 21 1019.2 1019.1 0.0
04/10:00am 19.3 13.4 10.6 57 4.7 SSE 32 41 17 22 1019.3 1019.2 0.0
04/09:30am 18.9 12.9 10.2 57 4.6 SSE 32 39 17 21 1019.1 1019.0 0.0
04/09:00am 18.6 12.0 9.9 57 4.6 SSE 35 44 19 24 1019.2 1019.1 0.0
04/08:30am 18.0 10.7 10.1 60 4.2 SSE 39 48 21 26 1018.9 1018.8 0.0
04/08:00am 17.3 11.0 11.1 67 3.3 SSE 35 46 19 25 1018.6 1018.5 0.0
04/07:30am 16.6 11.7 11.3 71 2.9 SSE 28 43 15 23 1018.6 1018.5 0.0
04/07:00am 16.1 10.2 11.3 73 2.6 SSE 33 43 18 23 1018.2 1018.1 0.0
04/06:30am 16.2 9.9 11.2 72 2.7 SSE 35 44 19 24 1017.8 1017.7 0.0
04/06:00am 16.2 9.9 10.9 71 2.8 SSE 35 44 19 24 1017.6 1017.5 0.0
04/05:30am 16.4 10.4 10.9 70 2.9 SSE 33 43 18 23 1017.4 1017.3 0.0
04/05:00am 16.4 11.4 10.9 70 2.9 SSE 28 39 15 21 1017.1 1017.0 0.0
04/04:30am 16.6 11.6 11.1 70 3.0 SSE 28 43 15 23 1016.9 1016.8 0.0
04/04:00am 17.0 11.7 11.1 68 3.2 SSE 30 41 16 22 1016.5 1016.4 0.0
04/03:30am 17.3 11.5 10.7 65 3.5 SSE 32 43 17 23 1016.4 1016.3 0.0
04/03:00am 17.7 11.2 10.3 62 3.9 SSE 35 46 19 25 1016.1 1016.0 0.0
04/02:30am 18.1 11.6 10.5 61 4.1 SSE 35 48 19 26 1016.0 1015.9 0.0
04/02:00am 18.0 12.2 10.9 63 3.8 SSE 32 43 17 23 1016.3 1016.2 0.0
04/01:30am 18.4 12.7 11.0 62 4.0 SSE 32 43 17 23 1016.4 1016.3 0.0
04/01:10am 18.7 12.7 10.8 60 4.3 SSE 33 52 18 28 1016.5 1016.4 0.0
04/01:00am 18.8 13.1 11.1 61 4.2 SSE 32 39 17 21 1016.7 1016.6 0.0
04/12:30am 19.0 12.3 11.1 60 4.3 SSE 37 46 20 25 1016.5 1016.4 0.0
04/12:00am 19.0 12.9 11.8 63 4.0 SSE 35 48 19 26 1016.4 1016.3 0.0
 
Date/Time
CDT
Temp
°C
App
Temp
°C
Dew
Point
Rel
Hum
%
Delta-T
°C
Wind Press
QNH
hPa
Press
MSL
hPa
Rain
since 9 am
mm
Dir
 
Spd
km/h
Gust
km/h
Spd
kts
Gust
kts
03/11:30pm 19.2 13.6 12.0 63 4.0 SSE 33 50 18 27 1016.5 1016.4 0.0
03/11:14pm 19.4 13.8 12.2 63 4.0 SSE 33 52 18 28 1016.4 1016.3 0.0
03/11:00pm 19.6 13.6 12.1 62 4.2 SSE 35 48 19 26 1016.4 1016.3 0.0
03/10:43pm 20.0 14.1 12.5 62 4.2 SSE 35 54 19 29 1016.3 1016.2 0.0
03/10:30pm 20.2 14.2 12.2 60 4.5 SSE 35 48 19 26 1016.3 1016.2 0.0
03/10:00pm 20.6 14.9 11.2 55 5.2 S 32 39 17 21 1016.1 1016.0 0.0
03/09:30pm 21.0 14.5 10.5 51 5.7 S 35 46 19 25 1015.9 1015.8 0.0
03/09:00pm 21.3 14.7 9.9 48 6.1 S 35 44 19 24 1015.7 1015.6 0.0
03/08:30pm 21.4 16.5 12.5 57 5.0 S 30 37 16 20 1015.5 1015.4 0.0
03/08:00pm 21.9 16.5 12.2 54 5.5 S 32 41 17 22 1015.3 1015.2 0.0
03/07:41pm 22.1 15.4 12.4 54 5.5 S 39 57 21 31 1015.0 1014.9 0.0
03/07:30pm 22.5 15.5 12.4 52 5.7 S 41 57 22 31 1014.8 1014.7 0.0
03/07:27pm 22.7 16.1 12.6 53 5.8 S 39 57 21 31 1014.8 1014.7 0.0
03/07:00pm 23.5 15.9 11.9 48 6.6 S 43 56 23 30 1014.5 1014.4 0.0
03/06:30pm 24.4 17.1 11.7 45 7.2 S 41 52 22 28 1014.1 1014.0 0.0
03/06:00pm 24.8 17.9 11.7 44 7.4 S 39 52 21 28 1013.7 1013.6 0.0
03/05:30pm 25.2 18.3 11.7 43 7.7 S 39 50 21 27 1013.7 1013.6 0.0
03/05:00pm 26.1 18.9 10.7 38 8.6 S 39 50 21 27 1013.6 1013.5 0.0
03/04:30pm 25.8 18.8 10.0 37 8.7 S 37 52 20 28 1013.5 1013.4 0.0
03/04:02pm 26.1 19.0 9.5 35 9.1 S 37 56 20 30 1013.7 1013.6 0.0
03/04:00pm 26.2 18.7 9.5 35 9.2 S 39 56 21 30 1013.7 1013.6 0.0
03/03:54pm 26.4 19.7 9.7 35 9.2 S 35 56 19 30 1013.6 1013.5 0.0
03/03:30pm 25.7 18.7 9.9 37 8.7 SSE 37 52 20 28 1013.5 1013.4 0.0
03/03:00pm 25.8 19.3 10.4 38 8.6 S 35 56 19 30 1013.8 1013.7 0.0
03/02:59pm 25.3 18.8 10.4 39 8.3 S 35 56 19 30 1013.7 1013.6 0.0
03/02:30pm 25.7 18.5 10.7 39 8.4 S 39 52 21 28 1013.7 1013.6 0.0
03/02:16pm 25.2 18.5 11.0 41 8.0 S 37 56 20 30 1013.6 1013.5 0.0
03/02:00pm 24.9 17.4 10.8 41 7.9 S 41 56 22 30 1013.5 1013.4 0.0
03/01:54pm 25.5 19.0 11.7 42 7.9 S 37 56 20 30 1013.6 1013.5 0.0
03/01:30pm 24.2 17.1 10.8 43 7.5 SSE 39 50 21 27 1013.7 1013.6 0.0
03/01:00pm 24.8 16.9 10.7 41 7.9 SSE 43 54 23 29 1013.8 1013.7 0.0
03/12:30pm 24.3 16.3 10.6 42 7.6 SSE 43 61 23 33 1014.0 1013.9 0.0
03/12:22pm 24.2 16.4 11.2 44 7.3 SSE 43 61 23 33 1013.9 1013.8 0.0
03/12:00pm 24.1 16.4 11.4 45 7.1 SSE 43 57 23 31 1013.8 1013.7 0.0
03/11:30am 23.1 16.8 12.4 51 6.1 SSE 37 48 20 26 1013.9 1013.8 0.0
03/11:00am 22.3 15.6 12.3 53 5.7 SSE 39 54 21 29 1013.8 1013.7 0.0
03/10:52am 22.0 16.5 11.7 52 5.8 S 32 48 17 26 1014.0 1013.9 0.0
03/10:30am 20.6 16.0 13.6 64 4.0 SSW 30 39 16 21 1014.1 1014.0 0.0
03/10:08am 20.5 15.9 12.2 59 4.7 SSW 28 50 15 27 1013.9 1013.8 0.0
03/10:00am 19.8 16.7 14.4 71 3.1 SSW 24 33 13 18 1013.8 1013.7 0.0
03/09:30am 19.4 15.6 14.6 74 2.8 SSW 28 35 15 19 1013.8 1013.7 0.0
03/09:00am 18.2 13.9 14.3 78 2.2 SSW 30 35 16 19 1013.7 1013.6 0.2

Other Formats:

Comma delimited format used in spreadsheet applications
http://www.bom.gov.au/fwo/IDS60801/IDS60801.95666.axf

JavaScript Object Notation format (JSON) in row-major order
http://www.bom.gov.au/fwo/IDS60801/IDS60801.95666.json